Bookmark and Share
Track history (hours):
 

Plato

Last reported at 2014-Apr-24 13:33 UTC. Time now 2014-Apr-24 13:51 UTC.
Position N 54°02' W 006°08'.

Length 88 m; draft 4.8 m.

Type: Cargo ship. MMSI: 314189000.

NotesDate/timePositionNaut miles runAvg speedWind from/ knotsBaromVisibWave heightAir tempDewpointWater temp
2014-Apr-24 13:33N 54°02' W 006°08'0 0.0
2014-Apr-24 12:33N 54°02' W 006°08'0 0.0
2014-Apr-24 11:31N 54°02' W 006°08'0 0.0
2014-Apr-24 10:32N 54°02' W 006°08'2 1.9
2014-Apr-24 09:32N 54°01' W 006°05'31 9.0
2014-Apr-24 06:08N 54°20' W 005°23'6 9.6
2014-Apr-24 05:33N 54°25' W 005°19'9 9.2
2014-Apr-24 04:33N 54°34' W 005°20'1010.2
2014-Apr-24 03:33N 54°44' W 005°26'1111.0
2014-Apr-24 02:33N 54°54' W 005°34'2110.6
2014-Apr-24 00:32N 55°11' W 005°55'9 8.8
2014-Apr-23 23:33N 55°18' W 006°04'7 7.5
2014-Apr-23 22:33N 55°22' W 006°15'8 8.1
2014-Apr-23 21:33N 55°26' W 006°27'8 7.8
2014-Apr-23 20:33N 55°32' W 006°37'8 8.3
2014-Apr-23 19:33N 55°38' W 006°47'147 8.2
2014-Apr-23 01:33N 58°03' W 006°08'8 8.0
2014-Apr-23 00:33N 58°09' W 005°58'8 8.3
2014-Apr-22 23:33N 58°16' W 005°48'9 8.6
2014-Apr-22 22:33N 58°22' W 005°37'43 8.5
2014-Apr-22 17:31N 58°42' W 004°25'8 8.1
2014-Apr-22 16:33N 58°43' W 004°10'8 7.8
2014-Apr-22 15:33N 58°43' W 003°55'8 7.7
2014-Apr-22 14:33N 58°43' W 003°40'8 7.4
2014-Apr-22 13:33N 58°43' W 003°26'7 7.4
2014-Apr-22 12:32N 58°43' W 003°12'7 7.0
2014-Apr-22 11:33N 58°43' W 002°58'419 8.7
2014-Apr-20 11:31N 57°48' E 010°12'9 9.0
2014-Apr-20 10:33N 57°48' E 010°28'9 9.3
2014-Apr-20 09:33N 57°47' E 010°46'10 9.1
2014-Apr-20 08:28N 57°41' E 010°60'8 9.3
2014-Apr-20 07:33N 57°35' E 011°12'10 9.7
2014-Apr-20 06:33N 57°29' E 011°25'1010.1
2014-Apr-20 05:33N 57°19' E 011°32'10 9.8
2014-Apr-20 04:32N 57°10' E 011°38'10 9.9
2014-Apr-20 03:33N 57°01' E 011°45'9 9.4
2014-Apr-20 02:33N 56°52' E 011°51'9 9.4
2014-Apr-20 01:33N 56°44' E 011°60'9 9.4
2014-Apr-20 00:33N 56°36' E 012°08'30 9.2
2014-Apr-19 21:13N 56°08' E 012°32'711.1
2014-Apr-19 20:33N 56°02' E 012°40'1110.5
2014-Apr-19 19:33N 55°52' E 012°44'1010.4
2014-Apr-19 18:33N 55°42' E 012°41'1110.8
2014-Apr-19 17:33N 55°31' E 012°43'8 8.5
2014-Apr-19 16:33N 55°23' E 012°41'7 6.6
2014-Apr-19 15:33N 55°17' E 012°48'8 8.3
2014-Apr-19 14:33N 55°16' E 013°02'8 8.4
2014-Apr-19 13:33N 55°15' E 013°17'8 8.3
2014-Apr-19 12:33N 55°15' E 013°32'8 8.5
2014-Apr-19 11:33N 55°14' E 013°47'9 9.0
2014-Apr-19 10:33N 55°14' E 014°02'9 8.8
2014-Apr-19 09:33N 55°15' E 014°18'9 9.1
2014-Apr-19 08:33N 55°21' E 014°29'9 8.5
2014-Apr-19 07:33N 55°26' E 014°42'10 9.9
2014-Apr-19 06:33N 55°24' E 014°59'9 9.2
2014-Apr-19 05:32N 55°22' E 015°15'10 8.9
2014-Apr-19 04:22N 55°20' E 015°33'89 9.1
2014-Apr-18 18:32N 55°01' E 018°06'9 9.4
2014-Apr-18 17:34N 54°59' E 018°22'9 9.1
2014-Apr-18 16:33N 54°57' E 018°37'9 9.3
2014-Apr-18 15:33N 54°51' E 018°49'9 8.8
2014-Apr-18 14:33N 54°44' E 018°60'9 9.2
2014-Apr-18 13:33N 54°36' E 018°54'8 8.3
2014-Apr-18 12:33N 54°32' E 018°41'5 4.5
2014-Apr-18 11:31N 54°32' E 018°33'0 0.0
2014-Apr-18 10:31N 54°32' E 018°33'0 0.0
2014-Apr-18 09:31N 54°32' E 018°33'0 0.0
2014-Apr-18 08:33N 54°32' E 018°33'0 0.0
2014-Apr-18 07:33N 54°32' E 018°33'0 0.0
2014-Apr-18 06:32N 54°32' E 018°33'0 0.0
2014-Apr-18 05:32N 54°32' E 018°33'0 0.0
2014-Apr-18 04:31N 54°32' E 018°33'0 0.0
2014-Apr-18 03:30N 54°32' E 018°33'0 0.0
2014-Apr-18 02:33N 54°32' E 018°33'0 0.0
2014-Apr-18 01:32N 54°32' E 018°33'0 0.0
2014-Apr-18 00:32N 54°32' E 018°33'0 0.0
2014-Apr-17 23:31N 54°32' E 018°33'0 0.0
2014-Apr-17 22:31N 54°32' E 018°33'0 0.0
2014-Apr-17 21:32N 54°32' E 018°33'0 0.0
2014-Apr-17 20:31N 54°32' E 018°33'0 0.0
2014-Apr-17 19:33N 54°32' E 018°33'0 0.0
2014-Apr-17 18:33N 54°32' E 018°33'0 0.0
2014-Apr-17 17:32N 54°32' E 018°33'0 0.0
2014-Apr-17 16:32N 54°32' E 018°33'0 0.0
2014-Apr-17 15:31N 54°32' E 018°33'0 0.0
2014-Apr-17 14:34N 54°32' E 018°33'0 0.0
2014-Apr-17 13:33N 54°32' E 018°33'0 0.0
2014-Apr-17 12:32N 54°32' E 018°33'0 0.0
2014-Apr-17 11:32N 54°32' E 018°33'0 0.0
2014-Apr-17 10:31N 54°32' E 018°33'0 0.0
2014-Apr-17 09:33N 54°32' E 018°33'4 4.1
2014-Apr-17 08:34N 54°32' E 018°40'9 8.9
2014-Apr-17 07:33N 54°37' E 018°54'9 9.2
2014-Apr-17 06:33N 54°46' E 018°54'9 9.4
2014-Apr-17 05:33N 54°54' E 018°45'1010.2
2014-Apr-17 04:33N 54°57' E 018°28'1010.1
2014-Apr-17 03:33N 54°57' E 018°10'1010.0
2014-Apr-17 02:33N 54°56' E 017°53'1010.1
2014-Apr-17 01:33N 54°54' E 017°35'1110.1
2014-Apr-17 00:27N 54°52' E 017°17'102 9.9
2014-Apr-16 14:09N 54°36' E 014°22'610.1
2014-Apr-16 13:33N 54°38' E 014°12'1010.2
2014-Apr-16 12:33N 54°41' E 013°55'1110.6
2014-Apr-16 11:33N 54°44' E 013°38'1110.7
2014-Apr-16 10:33N 54°45' E 013°19'1010.0
2014-Apr-16 09:31N 54°45' E 013°01'1010.0
2014-Apr-16 08:33N 54°43' E 012°45'1010.3
2014-Apr-16 07:33N 54°37' E 012°30'1110.9
2014-Apr-16 06:33N 54°30' E 012°17'10 9.6
2014-Apr-16 05:33N 54°25' E 012°03'1110.6
2014-Apr-16 04:33N 54°25' E 011°45'1010.5
2014-Apr-16 03:33N 54°30' E 011°28'  

Dump ship's entire track history

sailing weather and tide predictions

Plato — 8PRX — position and weather